Terminal Aerodrome Forecast
Issued by NWS Cleveland, OH

Home | Current Version | Previous Version | Text Only | Print | Product List | Glossary On
Versions: 1 2 3 4 5 6 7 8 9 10 11 12 13 14 15 16 17 18 19 20 21 22 23 24 25 26 27 28 29 30 31 32 33 34 35 36 37 38 39 40 41 42 43 44 45 46 47 48 49 50
602
FTUS41 KCLE 170153 AAB
TAFMFD
TAF AMD
KMFD 170153Z 1702/1724 20007KT P6SM SCT045 BKN120
      TEMPO 1702/1706 5SM -TSRA OVC025CB
     FM170600 18006KT P6SM VCTS OVC035CB
     FM171000 17005KT P6SM VCSH BKN025
     FM171600 21006KT 5SM TSRA OVC025CB
      TEMPO 1716/1720 2SM TSRA OVC015CB
     FM172000 27006KT 5SM SHRA OVC025
      TEMPO 1720/1724 2SM TSRA OVC015CB=

USA.gov is the U.S. government's official web portal to all federal, state and local government web resources and services.